createdAt,value
2023-03-21T00:00:25.270Z,19.08
2023-03-21T00:01:27.597Z,18.87
2023-03-21T00:02:30.739Z,18.70
2023-03-21T00:03:33.956Z,18.45
2023-03-21T00:04:50.298Z,18.73
2023-03-21T00:05:54.087Z,19.12
2023-03-21T00:06:56.481Z,18.10
2023-03-21T00:08:01.024Z,18.80
2023-03-21T00:09:07.851Z,18.87
2023-03-21T00:10:16.613Z,20.30
2023-03-21T00:11:21.717Z,20.25
2023-03-21T00:12:24.233Z,20.35
2023-03-21T00:13:28.380Z,20.23
2023-03-21T00:14:31.204Z,22.23
2023-03-21T00:15:42.668Z,23.23
2023-03-21T00:16:51.387Z,24.25
2023-03-21T00:18:03.510Z,25.00
2023-03-21T00:19:06.764Z,23.07
2023-03-21T00:20:15.230Z,22.93
2023-03-21T00:22:41.023Z,22.13
2023-03-21T00:23:43.637Z,21.33
2023-03-21T00:24:46.606Z,20.45
2023-03-21T00:25:48.944Z,17.95
2023-03-21T00:26:51.253Z,19.92
2023-03-21T00:28:07.538Z,18.70
2023-03-21T00:29:10.928Z,20.25
2023-03-21T00:30:15.409Z,19.77
2023-03-21T00:31:17.997Z,21.43
2023-03-21T00:32:21.434Z,20.05
2023-03-21T00:33:23.959Z,21.25
2023-03-21T00:34:36.926Z,20.73
2023-03-21T00:36:05.751Z,19.87
2023-03-21T00:37:09.723Z,19.62
2023-03-21T00:38:12.168Z,18.40
2023-03-21T00:39:15.462Z,18.50
2023-03-21T00:40:27.858Z,19.15
2023-03-21T00:41:48.919Z,18.27
2023-03-21T00:42:52.724Z,18.10
2023-03-21T00:43:55.774Z,16.65
2023-03-21T00:44:58.296Z,17.62
2023-03-21T00:46:00.853Z,17.37
2023-03-21T00:47:07.895Z,18.92
2023-03-21T00:48:10.853Z,17.62
2023-03-21T00:49:13.672Z,18.20
2023-03-21T00:50:16.695Z,17.77
2023-03-21T00:51:26.667Z,17.30
2023-03-21T00:52:40.310Z,16.57
2023-03-21T00:53:43.338Z,17.57
2023-03-21T00:54:45.810Z,16.25
2023-03-21T00:55:48.255Z,17.62
2023-03-21T00:56:50.710Z,17.23
2023-03-21T00:58:01.451Z,18.05
2023-03-21T00:59:04.515Z,17.40
2023-03-21T01:00:10.177Z,17.35
2023-03-21T01:01:12.718Z,15.93
2023-03-21T01:02:22.800Z,15.00
2023-03-21T01:03:26.776Z,15.13
2023-03-21T01:04:29.337Z,15.47
2023-03-21T01:05:51.645Z,15.70
2023-03-21T01:06:54.785Z,16.70
2023-03-21T01:07:57.817Z,15.68
2023-03-21T01:09:00.542Z,15.73
2023-03-21T01:10:03.110Z,14.60
2023-03-21T01:11:07.326Z,14.85
2023-03-21T01:12:10.694Z,16.02
2023-03-21T01:13:14.113Z,14.50
2023-03-21T01:14:24.956Z,16.03
2023-03-21T01:15:28.964Z,13.47
2023-03-21T01:16:31.711Z,13.43
2023-03-21T01:17:34.521Z,13.00
2023-03-21T01:18:38.221Z,12.43
2023-03-21T01:19:51.641Z,12.68
2023-03-21T01:20:56.271Z,13.07
2023-03-21T01:21:58.649Z,13.55
2023-03-21T01:23:01.193Z,13.07
2023-03-21T01:24:03.571Z,13.77
2023-03-21T01:25:21.543Z,16.17
2023-03-21T01:26:24.865Z,21.83
2023-03-21T01:27:27.298Z,21.05
2023-03-21T01:28:31.135Z,20.75
2023-03-21T01:29:33.552Z,17.95
2023-03-21T01:30:41.728Z,15.23
2023-03-21T01:31:44.576Z,13.73
2023-03-21T01:32:47.432Z,13.62
2023-03-21T01:33:49.827Z,14.25
2023-03-21T01:34:52.227Z,14.10
2023-03-21T01:36:10.001Z,13.60
2023-03-21T01:37:17.849Z,13.33
2023-03-21T01:38:20.621Z,13.30
2023-03-21T01:39:24.057Z,14.00
2023-03-21T01:40:26.923Z,20.00
2023-03-21T01:41:46.687Z,23.25
2023-03-21T01:42:49.718Z,22.77
2023-03-21T01:43:54.862Z,21.90
2023-03-21T01:44:59.969Z,21.67
2023-03-21T01:46:10.108Z,23.10
2023-03-21T01:47:13.747Z,21.67
2023-03-21T01:48:16.959Z,20.10
2023-03-21T01:49:28.099Z,17.50
2023-03-21T01:50:31.646Z,15.13
2023-03-21T01:51:36.422Z,14.45
2023-03-21T01:52:41.827Z,14.73
2023-03-21T01:53:45.395Z,14.18
2023-03-21T01:54:48.072Z,13.82
2023-03-21T01:55:50.688Z,12.95
2023-03-21T01:56:56.261Z,14.23
2023-03-21T01:58:07.960Z,16.83
2023-03-21T01:59:21.688Z,17.30
2023-03-21T02:00:26.805Z,17.58
2023-03-21T02:01:31.875Z,17.85
2023-03-21T02:02:37.631Z,16.33
2023-03-21T02:03:51.255Z,15.75
2023-03-21T02:04:58.306Z,14.38
2023-03-21T02:06:12.652Z,13.18
2023-03-21T02:07:18.138Z,14.00
2023-03-21T02:08:25.908Z,14.38
2023-03-21T02:09:40.972Z,13.37
2023-03-21T02:10:50.432Z,13.60
2023-03-21T02:11:56.118Z,15.18
2023-03-21T02:13:09.507Z,18.62
2023-03-21T02:14:26.757Z,15.73
2023-03-21T02:15:31.526Z,14.35
2023-03-21T02:16:34.261Z,16.48
2023-03-21T02:17:41.115Z,14.85
2023-03-21T02:18:44.545Z,16.02
2023-03-21T02:20:11.600Z,16.35
2023-03-21T02:21:20.340Z,15.07
2023-03-21T02:22:29.161Z,15.20
2023-03-21T02:23:40.876Z,14.52
2023-03-21T02:25:08.198Z,14.77
2023-03-21T02:26:41.146Z,13.82
2023-03-21T02:28:12.420Z,13.57
2023-03-21T02:29:34.279Z,14.02
2023-03-21T02:31:05.562Z,13.88
2023-03-21T02:32:31.521Z,13.52
2023-03-21T02:33:40.227Z,13.75
2023-03-21T02:34:42.566Z,13.57
2023-03-21T02:35:54.161Z,14.27
2023-03-21T02:37:03.525Z,13.55
2023-03-21T02:38:06.389Z,13.23
2023-03-21T02:39:13.671Z,13.52
2023-03-21T02:40:31.171Z,13.30
2023-03-21T02:41:42.094Z,12.48
2023-03-21T02:42:51.781Z,13.60
2023-03-21T02:44:19.712Z,14.38
2023-03-21T02:45:25.878Z,13.50
2023-03-21T02:46:42.909Z,13.03
2023-03-21T02:47:49.850Z,13.03
2023-03-21T02:49:01.240Z,13.82
2023-03-21T02:50:04.041Z,14.23
2023-03-21T02:51:08.076Z,13.80
2023-03-21T02:52:18.779Z,14.13
2023-03-21T02:53:27.841Z,13.90
2023-03-21T02:54:47.070Z,13.80
2023-03-21T02:55:52.971Z,14.82
2023-03-21T02:56:58.255Z,14.87
2023-03-21T02:58:12.377Z,14.90
2023-03-21T02:59:17.494Z,15.10
2023-03-21T03:00:21.692Z,15.00
2023-03-21T03:01:26.053Z,15.52
2023-03-21T03:02:30.969Z,16.02
2023-03-21T03:03:39.030Z,15.38
2023-03-21T03:04:41.533Z,16.65
2023-03-21T03:05:45.951Z,16.25
2023-03-21T03:07:07.027Z,15.40
2023-03-21T03:08:12.485Z,15.93
2023-03-21T03:09:15.118Z,15.23
2023-03-21T03:10:17.548Z,15.07
2023-03-21T03:11:19.869Z,15.70
2023-03-21T03:12:28.918Z,14.93
2023-03-21T03:13:40.789Z,15.23
2023-03-21T03:15:00.217Z,14.87
2023-03-21T03:16:12.235Z,15.55
2023-03-21T03:17:20.542Z,14.98
2023-03-21T03:18:52.800Z,15.10
2023-03-21T03:20:15.679Z,15.35
2023-03-21T03:21:19.133Z,15.23
2023-03-21T03:22:25.446Z,16.43
2023-03-21T03:23:35.167Z,16.10
2023-03-21T03:24:39.856Z,16.10
2023-03-21T03:25:50.291Z,17.92
2023-03-21T03:26:55.390Z,17.83
2023-03-21T03:27:58.740Z,19.05
2023-03-21T03:29:06.906Z,18.33
2023-03-21T03:30:11.206Z,18.42
2023-03-21T03:31:15.853Z,17.17
2023-03-21T03:32:25.652Z,16.13
2023-03-21T03:33:29.721Z,16.13
2023-03-21T03:34:34.998Z,15.63
2023-03-21T03:35:37.755Z,16.87
2023-03-21T03:36:42.031Z,15.88
2023-03-21T03:37:48.210Z,16.40
2023-03-21T03:38:51.695Z,14.93
2023-03-21T03:40:05.174Z,19.25
2023-03-21T03:41:15.529Z,17.02
2023-03-21T03:42:28.043Z,16.02
2023-03-21T03:43:39.706Z,16.40
2023-03-21T03:44:43.753Z,14.23
2023-03-21T03:45:48.983Z,14.02
2023-03-21T03:46:55.463Z,14.07
2023-03-21T03:48:08.539Z,14.07
2023-03-21T03:49:15.493Z,14.35
2023-03-21T03:50:27.225Z,13.27
2023-03-21T03:51:42.917Z,13.32
2023-03-21T03:52:57.386Z,14.02
2023-03-21T03:54:06.656Z,13.70
2023-03-21T03:55:11.548Z,13.47
2023-03-21T03:56:14.769Z,13.13
2023-03-21T03:57:18.774Z,13.27
2023-03-21T03:58:24.180Z,14.75
2023-03-21T03:59:28.544Z,13.48
2023-03-21T04:00:32.708Z,13.52
2023-03-21T04:01:37.572Z,13.38
2023-03-21T04:02:42.036Z,14.05
2023-03-21T04:03:50.518Z,13.60
2023-03-21T04:04:57.924Z,13.52
2023-03-21T04:06:00.510Z,14.57
2023-03-21T04:07:03.734Z,14.57
2023-03-21T04:08:06.868Z,14.90
2023-03-21T04:09:20.700Z,14.23
2023-03-21T04:10:25.629Z,14.00
2023-03-21T04:11:30.424Z,13.88
2023-03-21T04:12:33.391Z,14.60
2023-03-21T04:13:39.605Z,16.17
2023-03-21T04:14:47.131Z,14.87
2023-03-21T04:15:50.719Z,14.75
2023-03-21T04:16:54.690Z,15.20
2023-03-21T04:17:57.712Z,16.10
2023-03-21T04:19:00.203Z,14.40
2023-03-21T04:20:12.089Z,16.23
2023-03-21T04:21:27.577Z,14.50
2023-03-21T04:22:31.267Z,15.55
2023-03-21T04:23:36.607Z,14.70
2023-03-21T04:24:40.087Z,15.63
2023-03-21T04:25:55.578Z,16.25
2023-03-21T04:27:00.570Z,16.33
2023-03-21T04:28:05.009Z,16.73
2023-03-21T04:29:08.023Z,16.27
2023-03-21T04:30:12.252Z,15.80
2023-03-21T04:31:25.602Z,15.73
2023-03-21T04:32:28.735Z,15.98
2023-03-21T04:33:32.468Z,15.48
2023-03-21T04:34:40.440Z,15.23
2023-03-21T04:35:46.339Z,15.10
2023-03-21T04:36:50.901Z,14.48
2023-03-21T04:37:54.533Z,15.68
2023-03-21T04:39:00.989Z,15.93
2023-03-21T04:40:07.034Z,14.63
2023-03-21T04:41:09.610Z,15.07
2023-03-21T04:42:14.500Z,16.02
2023-03-21T04:43:17.899Z,14.82
2023-03-21T04:44:21.035Z,15.73
2023-03-21T04:45:24.429Z,15.70
2023-03-21T04:46:26.798Z,16.37
2023-03-21T04:47:29.888Z,31.12
2023-03-21T04:48:32.313Z,34.92
2023-03-21T04:49:35.564Z,33.30
2023-03-21T04:50:38.689Z,18.20
2023-03-21T04:51:41.255Z,15.68
2023-03-21T04:52:43.861Z,14.07
2023-03-21T04:53:49.355Z,16.15
2023-03-21T04:54:51.732Z,14.82
2023-03-21T04:55:55.641Z,16.00
2023-03-21T04:56:58.590Z,15.60
2023-03-21T04:58:02.051Z,15.57
2023-03-21T04:59:12.311Z,15.70
2023-03-21T05:00:15.426Z,13.87
2023-03-21T05:01:20.898Z,14.60
2023-03-21T05:02:23.607Z,14.75
2023-03-21T05:03:25.991Z,14.43
2023-03-21T05:04:28.445Z,14.73
2023-03-21T05:05:31.818Z,15.82
2023-03-21T05:06:34.697Z,16.15
2023-03-21T05:07:39.546Z,17.25
2023-03-21T05:08:42.608Z,16.08
2023-03-21T05:09:47.114Z,16.85
2023-03-21T05:10:52.533Z,17.00
2023-03-21T05:11:56.274Z,16.53
2023-03-21T05:12:58.820Z,16.48
2023-03-21T05:14:02.923Z,17.30
2023-03-21T05:15:07.096Z,17.40
2023-03-21T05:16:10.197Z,18.35
2023-03-21T05:17:25.196Z,16.83
2023-03-21T05:18:27.566Z,16.85
2023-03-21T05:19:40.650Z,17.15
2023-03-21T05:20:43.406Z,16.80
2023-03-21T05:21:46.387Z,17.40
2023-03-21T05:22:51.621Z,16.97
2023-03-21T05:23:58.473Z,16.20
2023-03-21T05:25:00.954Z,16.08
2023-03-21T05:26:05.221Z,16.50
2023-03-21T05:27:08.458Z,16.42
2023-03-21T05:28:13.047Z,17.77
2023-03-21T05:29:19.156Z,17.30
2023-03-21T05:30:26.059Z,16.40
2023-03-21T05:31:31.646Z,18.23
2023-03-21T05:32:34.698Z,18.67
2023-03-21T05:33:37.378Z,18.87
2023-03-21T05:34:39.799Z,21.62
2023-03-21T05:35:42.214Z,21.58
2023-03-21T05:36:45.699Z,21.50
2023-03-21T05:37:48.670Z,22.60
2023-03-21T05:38:51.618Z,19.45
2023-03-21T05:39:54.815Z,19.30
2023-03-21T05:40:57.567Z,18.42
2023-03-21T05:41:59.991Z,19.12
2023-03-21T05:43:02.945Z,18.87
2023-03-21T05:44:06.254Z,20.07
2023-03-21T05:45:08.774Z,20.70
2023-03-21T05:46:12.010Z,21.12
2023-03-21T05:47:16.107Z,20.45
2023-03-21T05:48:19.389Z,18.15
2023-03-21T05:49:24.964Z,19.25
2023-03-21T05:50:29.477Z,18.45
2023-03-21T05:51:36.039Z,17.83
2023-03-21T05:52:38.792Z,18.75
2023-03-21T05:53:44.252Z,18.17
2023-03-21T05:54:47.228Z,17.90
2023-03-21T05:55:49.908Z,19.73
2023-03-21T05:56:55.994Z,22.20
2023-03-21T05:57:59.357Z,24.80
2023-03-21T05:59:02.363Z,22.30
2023-03-21T06:00:07.282Z,35.72
2023-03-21T06:01:19.446Z,31.25
2023-03-21T06:02:23.540Z,53.05
2023-03-21T06:03:26.202Z,36.30
2023-03-21T06:04:29.447Z,40.50
2023-03-21T06:05:32.169Z,36.07
2023-03-21T06:06:35.146Z,22.73
2023-03-21T06:07:40.288Z,23.08
2023-03-21T06:08:43.146Z,23.30
2023-03-21T06:09:46.846Z,22.40
2023-03-21T06:10:49.281Z,21.75
2023-03-21T06:11:53.150Z,21.77
2023-03-21T06:12:56.272Z,21.77
2023-03-21T06:13:59.721Z,22.17
2023-03-21T06:15:04.493Z,22.13
2023-03-21T06:16:07.304Z,22.60
2023-03-21T06:17:10.011Z,22.27
2023-03-21T06:18:15.855Z,22.40
2023-03-21T06:19:18.928Z,23.00
2023-03-21T06:20:22.214Z,21.50
2023-03-21T06:21:26.861Z,21.60
2023-03-21T06:22:29.423Z,21.10
2023-03-21T06:23:32.273Z,20.60
2023-03-21T06:24:34.686Z,21.80
2023-03-21T06:25:37.226Z,22.13
2023-03-21T06:26:42.495Z,23.20
2023-03-21T06:27:45.350Z,22.08
2023-03-21T06:28:51.777Z,21.17
2023-03-21T06:29:55.084Z,22.40
2023-03-21T06:30:58.314Z,21.45
2023-03-21T06:32:01.550Z,22.92
2023-03-21T06:33:04.738Z,25.25
2023-03-21T06:34:08.210Z,27.98
2023-03-21T06:35:10.896Z,29.67
2023-03-21T06:36:13.601Z,31.73
2023-03-21T06:37:16.664Z,32.30
2023-03-21T06:38:19.770Z,32.63
2023-03-21T06:39:23.333Z,30.73
2023-03-21T06:40:26.909Z,31.85
2023-03-21T06:41:30.316Z,31.37
2023-03-21T06:42:33.910Z,31.05
2023-03-21T06:43:37.379Z,30.10
2023-03-21T06:44:41.033Z,31.17
2023-03-21T06:45:44.805Z,31.17
2023-03-21T06:46:48.261Z,30.95
2023-03-21T06:47:52.394Z,30.70
2023-03-21T06:48:56.308Z,32.38
2023-03-21T06:49:59.754Z,32.50
2023-03-21T06:51:02.868Z,31.42
2023-03-21T06:52:06.310Z,31.80
2023-03-21T06:53:09.740Z,31.27
2023-03-21T06:54:17.924Z,31.17
2023-03-21T06:55:26.397Z,30.70
2023-03-21T06:56:36.120Z,29.85
2023-03-21T06:57:39.437Z,29.83
2023-03-21T06:58:42.689Z,26.17
2023-03-21T06:59:46.572Z,25.70
2023-03-21T07:00:50.226Z,26.02
2023-03-21T07:01:53.764Z,25.15
2023-03-21T07:02:57.098Z,23.98
2023-03-21T07:04:00.222Z,22.95
2023-03-21T07:05:03.738Z,23.23
2023-03-21T07:06:08.915Z,24.92
2023-03-21T07:07:11.899Z,25.35
2023-03-21T07:08:15.040Z,22.70
2023-03-21T07:09:20.155Z,21.53
2023-03-21T07:10:23.290Z,21.83
2023-03-21T07:11:30.113Z,22.95
2023-03-21T07:12:36.087Z,24.45
2023-03-21T07:13:39.332Z,24.23
2023-03-21T07:14:41.895Z,23.95
2023-03-21T07:15:44.338Z,26.92
2023-03-21T07:16:48.147Z,27.83
2023-03-21T07:17:50.789Z,28.20
2023-03-21T07:18:53.243Z,26.40
2023-03-21T07:19:55.981Z,27.43
2023-03-21T07:20:59.005Z,24.92
2023-03-21T07:22:01.728Z,25.98
2023-03-21T07:23:05.145Z,25.00
2023-03-21T07:24:07.940Z,25.45
2023-03-21T07:25:11.202Z,25.52
2023-03-21T07:26:13.711Z,26.00
2023-03-21T07:27:17.133Z,24.58
2023-03-21T07:28:21.792Z,24.12
2023-03-21T07:29:25.692Z,22.37
2023-03-21T07:30:28.715Z,28.73
2023-03-21T07:31:32.249Z,25.58
2023-03-21T07:32:35.749Z,31.20
2023-03-21T07:33:38.902Z,48.13
2023-03-21T07:34:42.425Z,28.05
2023-03-21T07:35:45.076Z,24.73
2023-03-21T07:36:47.945Z,23.10
2023-03-21T07:37:50.914Z,22.33
2023-03-21T07:38:53.793Z,22.67
2023-03-21T07:39:58.153Z,23.08
2023-03-21T07:41:00.904Z,30.53
2023-03-21T07:42:04.979Z,25.90
2023-03-21T07:43:10.161Z,18.23
2023-03-21T07:44:13.376Z,17.30
2023-03-21T07:45:21.361Z,33.45
2023-03-21T07:46:24.059Z,53.03
2023-03-21T07:47:26.494Z,29.33
2023-03-21T07:48:30.334Z,17.23
2023-03-21T07:49:32.675Z,14.98
2023-03-21T07:50:35.780Z,18.75
2023-03-21T07:51:38.285Z,18.83
2023-03-21T07:52:41.570Z,15.60
2023-03-21T07:53:48.550Z,15.95
2023-03-21T07:54:51.003Z,15.68
2023-03-21T07:55:56.419Z,14.98
2023-03-21T07:56:59.403Z,14.07
2023-03-21T07:58:03.185Z,14.30
2023-03-21T07:59:05.980Z,16.60
2023-03-21T08:00:08.843Z,12.35
2023-03-21T08:01:14.935Z,14.10
2023-03-21T08:02:18.060Z,19.33
2023-03-21T08:03:20.557Z,18.30
2023-03-21T08:04:22.935Z,11.63
2023-03-21T08:05:30.110Z,13.27
2023-03-21T08:06:32.666Z,12.55
2023-03-21T08:07:36.126Z,13.20
2023-03-21T08:08:39.036Z,13.85
2023-03-21T08:09:43.269Z,12.80
2023-03-21T08:10:46.266Z,12.70
2023-03-21T08:11:48.622Z,12.68
2023-03-21T08:12:51.486Z,12.90
2023-03-21T08:13:55.583Z,19.02
2023-03-21T08:15:00.629Z,27.20
2023-03-21T08:16:04.875Z,23.40
2023-03-21T08:17:09.501Z,21.87
2023-03-21T08:18:12.322Z,16.65
2023-03-21T08:19:14.726Z,15.77
2023-03-21T08:20:18.713Z,16.15
2023-03-21T08:21:21.191Z,17.17
2023-03-21T08:22:23.798Z,13.32
2023-03-21T08:23:27.149Z,14.93
2023-03-21T08:24:30.137Z,14.75
2023-03-21T08:25:33.248Z,16.70
2023-03-21T08:26:35.549Z,17.17
2023-03-21T08:27:38.126Z,15.18
2023-03-21T08:28:41.667Z,14.27
2023-03-21T08:29:44.036Z,15.48
2023-03-21T08:30:56.490Z,16.95
2023-03-21T08:31:58.937Z,14.23
2023-03-21T08:33:01.930Z,14.85
2023-03-21T08:34:04.722Z,16.77
2023-03-21T08:35:11.642Z,26.10
2023-03-21T08:36:14.273Z,28.83
2023-03-21T08:37:16.612Z,16.23
2023-03-21T08:38:19.309Z,32.22
2023-03-21T08:39:22.623Z,39.67
2023-03-21T08:40:26.076Z,40.50
2023-03-21T08:41:28.464Z,28.67
2023-03-21T08:42:30.949Z,31.65
2023-03-21T08:43:33.567Z,22.77
2023-03-21T08:44:36.265Z,18.37
2023-03-21T08:45:38.800Z,44.17
2023-03-21T08:46:41.450Z,37.90
2023-03-21T08:47:47.391Z,35.58
2023-03-21T08:48:49.988Z,33.90
2023-03-21T08:49:52.816Z,19.35
2023-03-21T08:50:55.235Z,18.75
2023-03-21T08:51:57.654Z,28.92
2023-03-21T08:53:00.234Z,46.50
2023-03-21T08:54:02.642Z,25.92
2023-03-21T08:55:05.778Z,13.67
2023-03-21T08:56:08.481Z,13.10
2023-03-21T08:57:11.476Z,15.23
2023-03-21T08:58:13.915Z,12.70
2023-03-21T08:59:16.549Z,13.10
2023-03-21T09:00:20.830Z,14.63
2023-03-21T09:01:23.468Z,13.50
2023-03-21T09:02:26.669Z,14.20
2023-03-21T09:03:30.393Z,18.42
2023-03-21T09:04:32.978Z,18.70
2023-03-21T09:05:37.389Z,23.20
2023-03-21T09:06:49.777Z,16.17
2023-03-21T09:07:52.979Z,15.02
2023-03-21T09:08:55.365Z,19.92
2023-03-21T09:10:19.161Z,16.27
2023-03-21T09:11:21.222Z,13.77
2023-03-21T09:12:23.513Z,13.23
2023-03-21T09:13:26.729Z,13.80
2023-03-21T09:14:29.528Z,12.70
2023-03-21T09:15:32.010Z,11.63
2023-03-21T09:16:34.738Z,13.43
2023-03-21T09:17:42.553Z,16.12
2023-03-21T09:18:45.424Z,14.48
2023-03-21T09:19:49.342Z,13.98
2023-03-21T09:20:51.989Z,13.60
2023-03-21T09:21:55.814Z,13.75
2023-03-21T09:22:59.270Z,14.13
2023-03-21T09:24:02.911Z,14.15
2023-03-21T09:25:08.354Z,14.52
2023-03-21T09:26:11.383Z,13.43
2023-03-21T09:27:15.832Z,15.00
2023-03-21T09:28:18.247Z,16.30
2023-03-21T09:29:21.544Z,15.45
2023-03-21T09:30:26.235Z,14.73
2023-03-21T09:31:29.004Z,15.80
2023-03-21T09:32:31.800Z,15.50
2023-03-21T09:33:35.468Z,14.27
2023-03-21T09:34:41.178Z,13.25
2023-03-21T09:35:43.746Z,22.02
2023-03-21T09:36:48.549Z,26.15
2023-03-21T09:37:51.686Z,38.83
2023-03-21T09:38:57.019Z,16.90
2023-03-21T09:39:59.719Z,13.23
2023-03-21T09:41:05.141Z,13.45
2023-03-21T09:42:15.372Z,13.30
2023-03-21T09:43:23.823Z,14.15
2023-03-21T09:44:29.283Z,15.27
2023-03-21T09:45:35.635Z,14.80
2023-03-21T09:46:50.993Z,13.93
2023-03-21T09:47:53.964Z,15.55
2023-03-21T09:48:59.732Z,16.00
2023-03-21T09:50:14.114Z,15.13
2023-03-21T09:51:19.069Z,16.95
2023-03-21T09:52:24.561Z,15.15
2023-03-21T09:53:35.576Z,15.73
2023-03-21T09:54:40.696Z,17.58
2023-03-21T09:55:44.593Z,16.17
2023-03-21T09:56:47.758Z,13.55
2023-03-21T09:58:21.195Z,16.08
2023-03-21T09:59:33.806Z,13.65
2023-03-21T10:00:39.827Z,14.47
2023-03-21T10:01:45.612Z,14.20
2023-03-21T10:02:50.078Z,14.95
2023-03-21T10:03:54.855Z,16.50
2023-03-21T10:04:58.184Z,14.40
2023-03-21T10:06:03.787Z,13.52
2023-03-21T10:07:08.021Z,13.77
2023-03-21T10:08:16.136Z,12.52
2023-03-21T10:09:24.756Z,13.95
2023-03-21T10:10:33.979Z,15.48
2023-03-21T10:11:56.779Z,15.33
2023-03-21T10:12:59.536Z,14.43
2023-03-21T10:14:04.538Z,14.57
2023-03-21T10:15:12.429Z,14.10
2023-03-21T10:16:16.452Z,11.18
2023-03-21T10:17:34.556Z,11.95
2023-03-21T10:18:38.130Z,12.37
2023-03-21T10:19:42.062Z,11.88
2023-03-21T10:20:44.430Z,14.05
2023-03-21T10:22:00.216Z,12.43
2023-03-21T10:23:05.444Z,12.30
2023-03-21T10:24:12.363Z,12.55
2023-03-21T10:25:16.280Z,13.25
2023-03-21T10:26:21.433Z,12.85
2023-03-21T10:27:23.828Z,12.37
2023-03-21T10:28:29.969Z,13.80
2023-03-21T10:29:42.415Z,14.57
2023-03-21T10:30:46.644Z,13.23
2023-03-21T10:31:50.534Z,13.00
2023-03-21T10:32:52.995Z,11.27
2023-03-21T10:33:56.654Z,14.53
2023-03-21T10:35:00.040Z,12.95
2023-03-21T10:36:05.566Z,12.63
2023-03-21T10:37:08.183Z,11.68
2023-03-21T10:38:15.558Z,12.32
2023-03-21T10:39:27.452Z,11.45
2023-03-21T10:40:30.218Z,10.88
2023-03-21T10:41:33.243Z,11.05
2023-03-21T10:42:36.762Z,12.18
2023-03-21T10:43:40.985Z,13.60
2023-03-21T10:44:47.137Z,12.53
2023-03-21T10:45:49.843Z,11.65
2023-03-21T10:46:57.031Z,12.50
2023-03-21T10:48:02.794Z,12.88
2023-03-21T10:49:07.664Z,12.90
2023-03-21T10:50:13.086Z,11.43
2023-03-21T10:51:18.341Z,12.32
2023-03-21T10:52:22.458Z,11.32
2023-03-21T10:53:30.011Z,10.88
2023-03-21T10:54:33.343Z,11.88
2023-03-21T10:55:40.944Z,11.73
2023-03-21T10:56:46.001Z,15.25
2023-03-21T10:57:48.856Z,18.67
2023-03-21T10:58:52.794Z,11.55
2023-03-21T10:59:58.157Z,13.07
2023-03-21T11:01:05.052Z,12.60
2023-03-21T11:02:14.772Z,19.33
2023-03-21T11:03:23.098Z,18.12
2023-03-21T11:04:27.535Z,14.98
2023-03-21T11:05:38.504Z,10.05
2023-03-21T11:06:42.729Z,10.30
2023-03-21T11:07:45.639Z,9.95
2023-03-21T11:08:50.509Z,10.57
2023-03-21T11:09:57.739Z,10.35
2023-03-21T11:11:08.033Z,9.77
2023-03-21T11:12:11.572Z,10.07
2023-03-21T11:13:18.555Z,10.15
2023-03-21T11:14:39.806Z,11.00
2023-03-21T11:15:49.015Z,9.93
2023-03-21T11:16:51.986Z,10.85
2023-03-21T11:17:54.403Z,10.83
2023-03-21T11:19:00.689Z,10.15
2023-03-21T11:20:10.381Z,10.95
2023-03-21T11:21:13.781Z,11.02
2023-03-21T11:22:16.797Z,10.73
2023-03-21T11:23:20.726Z,10.65
2023-03-21T11:24:23.859Z,11.10
2023-03-21T11:25:39.638Z,10.93
2023-03-21T11:26:44.555Z,10.88
2023-03-21T11:27:48.526Z,10.90
2023-03-21T11:28:54.099Z,11.70
2023-03-21T11:29:58.051Z,11.23
2023-03-21T11:31:02.206Z,11.55
2023-03-21T11:32:23.810Z,11.48
2023-03-21T11:33:28.000Z,10.57
2023-03-21T11:34:30.650Z,11.63
2023-03-21T11:35:38.200Z,11.02
2023-03-21T11:36:40.959Z,11.27
2023-03-21T11:37:47.882Z,11.32
2023-03-21T11:38:52.249Z,10.98
2023-03-21T11:39:56.048Z,11.90
2023-03-21T11:41:00.330Z,10.80
2023-03-21T11:42:03.082Z,11.90
2023-03-21T11:43:11.631Z,10.98
2023-03-21T11:44:28.204Z,28.65
2023-03-21T11:45:35.674Z,12.23
2023-03-21T11:46:40.774Z,11.85
2023-03-21T11:47:43.661Z,12.05
2023-03-21T11:48:49.091Z,10.82
2023-03-21T11:49:58.389Z,12.43
2023-03-21T11:51:25.785Z,11.77
2023-03-21T11:52:38.346Z,10.75
2023-03-21T11:53:46.672Z,10.27
2023-03-21T11:55:08.216Z,10.43
2023-03-21T11:56:16.768Z,11.48
2023-03-21T11:57:25.014Z,11.20
2023-03-21T11:58:38.579Z,10.85
2023-03-21T11:59:51.459Z,10.77
2023-03-21T12:00:54.850Z,10.98
2023-03-21T12:02:16.928Z,10.43
2023-03-21T12:03:47.298Z,10.13
2023-03-21T12:05:08.884Z,10.32
2023-03-21T12:06:17.792Z,10.50
2023-03-21T12:07:28.455Z,11.38
2023-03-21T12:08:43.758Z,10.43
2023-03-21T12:10:04.748Z,9.90
2023-03-21T12:11:26.136Z,10.90
2023-03-21T12:12:38.869Z,9.68
2023-03-21T12:13:47.178Z,9.85
2023-03-21T12:14:49.862Z,9.63
2023-03-21T12:16:03.982Z,10.30
2023-03-21T12:17:18.389Z,9.88
2023-03-21T12:18:33.423Z,9.48
2023-03-21T12:19:49.266Z,9.65
2023-03-21T12:20:51.784Z,10.27
2023-03-21T12:22:00.871Z,9.77
2023-03-21T12:23:03.199Z,9.75
2023-03-21T12:24:10.708Z,9.90
2023-03-21T12:25:13.077Z,11.80
2023-03-21T12:26:42.124Z,9.95
2023-03-21T12:28:03.761Z,9.77
2023-03-21T12:29:06.458Z,9.48
2023-03-21T12:30:12.408Z,10.55
2023-03-21T12:31:18.165Z,9.75
2023-03-21T12:32:29.430Z,10.10
2023-03-21T12:33:41.287Z,10.15
2023-03-21T12:34:44.170Z,10.15
2023-03-21T12:36:06.777Z,10.07
2023-03-21T12:37:17.819Z,9.30
2023-03-21T12:38:20.501Z,10.13
2023-03-21T12:39:30.694Z,9.90
2023-03-21T12:40:44.433Z,10.10
2023-03-21T12:41:49.619Z,9.68
2023-03-21T12:43:00.952Z,9.73
2023-03-21T12:44:05.908Z,10.70
2023-03-21T12:45:15.185Z,10.05
2023-03-21T12:46:18.712Z,10.43
2023-03-21T12:47:23.420Z,9.70
2023-03-21T12:48:55.267Z,10.13
2023-03-21T12:50:06.354Z,9.98
2023-03-21T12:51:11.756Z,9.83
2023-03-21T12:52:22.079Z,10.27
2023-03-21T12:53:43.610Z,9.98
2023-03-21T12:54:51.743Z,9.82
2023-03-21T12:55:58.729Z,9.77
2023-03-21T12:57:04.817Z,9.85
2023-03-21T12:58:11.697Z,10.00
2023-03-21T12:59:20.594Z,11.35
2023-03-21T13:00:25.912Z,10.63
2023-03-21T13:01:29.087Z,12.07
2023-03-21T13:02:38.183Z,11.52
2023-03-21T13:03:51.032Z,10.57
2023-03-21T13:05:17.326Z,10.98
2023-03-21T13:06:22.840Z,9.60
2023-03-21T13:07:26.797Z,9.23
2023-03-21T13:08:33.696Z,9.82
2023-03-21T13:09:40.987Z,9.27
2023-03-21T13:10:45.418Z,8.52
2023-03-21T13:11:48.611Z,9.55
2023-03-21T13:13:13.681Z,9.45
2023-03-21T13:14:20.811Z,8.40
2023-03-21T13:15:30.927Z,9.17
2023-03-21T13:16:33.311Z,8.07
2023-03-21T13:17:59.164Z,9.32
2023-03-21T13:19:04.490Z,8.40
2023-03-21T13:20:22.467Z,7.90
2023-03-21T13:21:31.971Z,8.55
2023-03-21T13:22:34.542Z,8.80
2023-03-21T13:23:38.289Z,9.25
2023-03-21T13:24:44.161Z,9.98
2023-03-21T13:25:48.372Z,9.10
2023-03-21T13:26:56.891Z,7.77
2023-03-21T13:28:03.473Z,10.80
2023-03-21T13:29:37.130Z,7.85
2023-03-21T13:30:39.925Z,9.35
2023-03-21T13:31:52.056Z,10.10
2023-03-21T13:33:06.155Z,10.73
2023-03-21T13:34:09.427Z,8.10
2023-03-21T13:35:30.899Z,8.25
2023-03-21T13:36:35.812Z,15.38
2023-03-21T13:37:41.053Z,9.00
2023-03-21T13:38:49.452Z,8.77
2023-03-21T13:39:52.530Z,8.63
2023-03-21T13:41:01.294Z,7.62
2023-03-21T13:42:06.811Z,8.43
2023-03-21T13:43:29.861Z,7.53
2023-03-21T13:44:33.362Z,7.55
2023-03-21T13:45:46.035Z,7.87
2023-03-21T13:46:54.972Z,10.60
2023-03-21T13:48:01.116Z,8.93
2023-03-21T13:49:06.121Z,18.85
2023-03-21T13:50:21.726Z,11.10
2023-03-21T13:51:29.897Z,16.17
2023-03-21T13:52:32.581Z,12.35
2023-03-21T13:53:38.429Z,10.48
2023-03-21T13:54:40.758Z,13.35
2023-03-21T13:55:44.740Z,8.63
2023-03-21T13:56:47.478Z,10.25
2023-03-21T13:57:49.808Z,7.80
2023-03-21T13:58:54.029Z,9.38
2023-03-21T14:00:15.614Z,7.40
2023-03-21T14:01:30.764Z,8.37
2023-03-21T14:02:34.185Z,14.32
2023-03-21T14:03:36.622Z,10.75
2023-03-21T14:04:43.219Z,8.52
2023-03-21T14:05:56.594Z,7.82
2023-03-21T14:07:20.269Z,7.78
2023-03-21T14:08:36.581Z,7.37
2023-03-21T14:09:44.521Z,7.10
2023-03-21T14:10:49.202Z,6.87
2023-03-21T14:11:54.832Z,6.35
2023-03-21T14:13:00.155Z,6.80
2023-03-21T14:14:04.909Z,5.87
2023-03-21T14:15:16.820Z,6.80
2023-03-21T14:16:20.992Z,6.70
2023-03-21T14:17:28.246Z,6.20
2023-03-21T14:18:58.578Z,5.90
2023-03-21T14:19:58.944Z,6.07
2023-03-21T14:21:02.293Z,5.50